Terminal Aerodrome Forecast
Issued by NWS Wilmington, OH

Current Version | Previous Version | Text Only | Print | Product List | Glossary Off
Versions: 1 2 3 4 5 6 7 8 9 10 11 12 13 14 15 16 17

000
FTUS41 KILN 310800 AAA
TAFILN
TAF AMD
KILN 310858Z 3109/0106 19003KT P6SM BKN045 BKN070 OVC090
     FM311300 23008KT P6SM VCSH OVC040
     FM311600 27012G20KT 5SM -SHRA BR OVC025
     FM312100 30014G24KT P6SM VCSH BKN015
     FM010000 32019G30KT P6SM VCSH OVC010=

USA.gov is the U.S. government's official web portal to all federal, state and local government web resources and services.